Time;durP1;ratioP1;P1;durP2;ratioP2;P2;SDS_P1;SDS_P2;PMS_P1;PMS_P2;Temp;Humidity;BMP_temperature;BMP_pressure;BME280_temperature;BME280_humidity;BME280_pressure;Samples;Min_cycle;Max_cycle;Signal;HPM_P1;HPM_P2
2023/12/24 00:00:22;;;;;;;11.23;5.93;;;10.80;99.90;;;;;;10451537;28;20234;-82
2023/12/24 00:05:24;;;;;;;11.53;5.77;;;10.80;99.90;;;;;;10449835;28;20672;-82
2023/12/24 00:10:27;;;;;;;8.47;4.13;;;10.60;99.90;;;;;;10451541;28;20256;-82
2023/12/24 00:15:30;;;;;;;8.00;4.73;;;10.90;99.90;;;;;;10450382;28;20247;-81
2023/12/24 00:20:32;;;;;;;9.87;6.00;;;11.40;99.90;;;;;;10449803;28;20272;-82
2023/12/24 00:25:36;;;;;;;7.93;5.27;;;11.00;99.90;;;;;;10450701;28;20273;-82
2023/12/24 00:30:38;;;;;;;13.77;5.40;;;10.50;99.90;;;;;;10450071;28;20301;-82
2023/12/24 00:35:41;;;;;;;9.97;5.90;;;10.20;99.90;;;;;;10446846;28;20258;-82
2023/12/24 00:40:43;;;;;;;8.87;5.17;;;10.30;99.90;;;;;;10448937;28;20232;-82
2023/12/24 00:45:47;;;;;;;7.20;3.60;;;;;;;;;;10423831;28;20766;-82
2023/12/24 00:50:49;;;;;;;7.43;4.13;;;9.60;99.90;;;;;;10448190;28;20219;-82
2023/12/24 00:55:52;;;;;;;8.00;5.20;;;9.60;99.90;;;;;;10452064;28;20774;-82
2023/12/24 01:00:55;;;;;;;9.37;5.17;;;9.70;99.90;;;;;;10445919;28;20230;-82
2023/12/24 01:05:59;;;;;;;10.93;4.27;;;10.00;99.90;;;;;;10454569;28;20616;-82
2023/12/24 01:11:02;;;;;;;7.77;3.70;;;10.40;99.90;;;;;;10447914;28;20230;-82
2023/12/24 01:16:05;;;;;;;6.37;2.93;;;9.90;99.90;;;;;;10447193;28;20250;-82
2023/12/24 01:21:07;;;;;;;5.70;3.50;;;10.60;99.90;;;;;;10447421;28;20280;-82
2023/12/24 01:26:10;;;;;;;7.97;4.90;;;11.20;99.90;;;;;;10448110;28;20638;-82
2023/12/24 01:31:12;;;;;;;5.00;3.97;;;11.10;99.90;;;;;;10467361;28;20746;-82
2023/12/24 01:36:15;;;;;;;5.83;2.77;;;10.70;99.90;;;;;;10442495;28;20255;-82
2023/12/24 01:41:17;;;;;;;6.33;4.17;;;11.00;99.90;;;;;;10442691;28;20234;-82
2023/12/24 01:46:24;;;;;;;6.10;4.20;;;10.70;99.90;;;;;;10446606;28;20234;-82
2023/12/24 01:51:30;;;;;;;6.57;3.83;;;10.90;99.90;;;;;;10449736;28;20226;-82
2023/12/24 01:56:33;;;;;;;5.63;3.83;;;10.70;99.90;;;;;;10452281;28;20656;-82
2023/12/24 02:01:36;;;;;;;5.10;3.07;;;10.70;99.90;;;;;;10454640;28;20222;-82
2023/12/24 02:06:39;;;;;;;6.10;3.23;;;10.50;99.90;;;;;;10454731;28;20735;-82
2023/12/24 02:11:41;;;;;;;6.27;3.53;;;10.60;99.90;;;;;;10454943;28;20618;-82
2023/12/24 02:16:47;;;;;;;9.63;3.20;;;10.70;99.90;;;;;;10476336;28;20320;-82
2023/12/24 02:21:50;;;;;;;6.43;2.40;;;10.60;99.90;;;;;;10493393;28;20226;-82
2023/12/24 02:27:10;;;;;;;6.77;4.10;;;11.20;99.90;;;;;;10495973;28;20257;-82
2023/12/24 02:32:15;;;;;;;6.33;2.80;;;11.10;99.90;;;;;;10456809;28;20410;-82
2023/12/24 02:37:18;;;;;;;5.47;3.47;;;10.40;99.90;;;;;;10454618;28;20286;-82
2023/12/24 02:42:20;;;;;;;5.70;3.20;;;10.10;99.90;;;;;;10453396;28;20623;-82
2023/12/24 02:47:23;;;;;;;6.47;3.07;;;10.30;99.90;;;;;;10437012;28;20606;-82
2023/12/24 02:52:25;;;;;;;4.63;3.23;;;9.90;99.90;;;;;;10494832;28;20235;-82
2023/12/24 02:57:29;;;;;;;4.97;2.43;;;9.90;99.90;;;;;;10460755;28;20251;-82
2023/12/24 03:02:32;;;;;;;6.07;3.23;;;9.40;99.90;;;;;;10444093;28;20235;-82
2023/12/24 03:07:35;;;;;;;6.20;4.13;;;9.50;99.90;;;;;;10465190;28;20268;-82
2023/12/24 03:12:38;;;;;;;5.97;3.23;;;9.30;99.90;;;;;;10454239;28;20312;-81
2023/12/24 03:17:40;;;;;;;5.10;3.20;;;10.70;99.90;;;;;;10461000;28;20243;-82
2023/12/24 03:22:43;;;;;;;4.30;2.97;;;10.50;99.90;;;;;;10472874;28;20227;-82
2023/12/24 03:27:45;;;;;;;5.37;2.77;;;10.80;99.90;;;;;;10460456;28;20292;-82
2023/12/24 03:32:48;;;;;;;4.43;2.97;;;10.10;99.90;;;;;;10452363;28;20818;-82
2023/12/24 03:37:51;;;;;;;5.40;2.73;;;10.10;99.90;;;;;;10452360;28;20258;-82
2023/12/24 03:42:53;;;;;;;3.67;3.03;;;10.60;99.90;;;;;;10451748;28;20562;-82
2023/12/24 03:47:56;;;;;;;5.37;3.03;;;10.50;99.90;;;;;;10458636;28;20238;-82
2023/12/24 03:52:58;;;;;;;5.37;2.90;;;10.90;99.90;;;;;;10492277;28;20733;-82
2023/12/24 03:58:03;;;;;;;4.13;3.07;;;11.10;99.90;;;;;;10469971;28;20279;-82
2023/12/24 04:03:06;;;;;;;5.73;2.50;;;11.00;99.90;;;;;;10488818;28;20257;-82
2023/12/24 04:08:08;;;;;;;4.37;2.40;;;10.10;99.90;;;;;;10428640;28;20697;-82
2023/12/24 04:13:11;;;;;;;4.73;3.13;;;10.70;99.90;;;;;;10452003;28;20299;-82
2023/12/24 04:18:14;;;;;;;13.87;6.47;;;9.80;99.90;;;;;;10458777;28;20300;-82
2023/12/24 04:23:16;;;;;;;4.50;2.67;;;10.20;99.90;;;;;;10450802;28;20246;-82
2023/12/24 04:28:19;;;;;;;5.00;1.90;;;10.30;99.90;;;;;;10460522;28;20331;-82
2023/12/24 04:33:22;;;;;;;3.50;2.23;;;10.20;99.90;;;;;;10491579;28;20300;-82
2023/12/24 04:38:25;;;;;;;3.67;2.33;;;10.80;99.90;;;;;;10457079;28;20304;-82
2023/12/24 04:43:28;;;;;;;6.57;2.80;;;10.50;99.90;;;;;;10449865;28;20269;-82
2023/12/24 04:48:31;;;;;;;3.47;2.37;;;10.80;99.90;;;;;;10466918;28;20297;-82
2023/12/24 04:53:38;;;;;;;3.83;2.57;;;10.80;99.90;;;;;;10449614;28;20215;-82
2023/12/24 04:58:41;;;;;;;3.07;2.33;;;10.30;99.90;;;;;;10457510;28;20642;-82
2023/12/24 05:03:44;;;;;;;4.47;2.37;;;9.40;99.90;;;;;;10442004;28;20299;-82
2023/12/24 05:08:46;;;;;;;2.63;1.70;;;9.20;99.90;;;;;;10412617;28;20235;-82
2023/12/24 05:13:49;;;;;;;3.23;2.13;;;9.00;99.90;;;;;;10407860;28;20212;-82
2023/12/24 05:18:52;;;;;;;3.77;1.87;;;9.60;99.90;;;;;;10422778;28;20254;-82
2023/12/24 05:23:55;;;;;;;3.67;2.30;;;8.90;99.90;;;;;;10447890;28;20870;-82
2023/12/24 05:28:58;;;;;;;2.20;1.70;;;8.30;99.90;;;;;;10447603;28;20235;-82
2023/12/24 05:34:00;;;;;;;6.20;2.20;;;7.50;99.90;;;;;;10449203;28;20256;-82
2023/12/24 05:39:05;;;;;;;3.13;2.30;;;7.10;99.90;;;;;;10449085;28;20655;-82
2023/12/24 05:44:08;;;;;;;4.47;3.30;;;7.00;99.90;;;;;;10418100;28;20215;-82
2023/12/24 05:49:10;;;;;;;3.77;2.83;;;7.30;99.90;;;;;;10459840;28;20918;-82
2023/12/24 05:54:13;;;;;;;4.07;2.77;;;8.10;99.90;;;;;;10466695;28;20607;-82
2023/12/24 05:59:17;;;;;;;3.97;2.50;;;7.50;99.90;;;;;;10453251;28;20231;-82
2023/12/24 06:04:19;;;;;;;3.57;2.63;;;7.80;99.90;;;;;;10478409;28;20222;-82
2023/12/24 06:09:21;;;;;;;2.90;2.60;;;8.30;99.90;;;;;;10449545;28;20234;-82
2023/12/24 06:14:24;;;;;;;21.60;10.60;;;8.20;99.90;;;;;;10448476;28;20238;-82
2023/12/24 06:19:27;;;;;;;4.17;3.13;;;7.90;99.90;;;;;;10408362;28;20656;-82
2023/12/24 06:24:30;;;;;;;3.07;2.50;;;7.50;99.90;;;;;;10472399;28;20650;-82
2023/12/24 06:29:36;;;;;;;3.43;2.37;;;7.20;99.90;;;;;;10489393;28;20690;-82
2023/12/24 06:34:40;;;;;;;2.77;2.27;;;7.50;99.90;;;;;;10489395;28;20238;-82
2023/12/24 06:39:42;;;;;;;6.63;2.80;;;7.00;99.90;;;;;;10455288;28;20254;-82
2023/12/24 06:44:45;;;;;;;3.37;2.40;;;7.40;99.90;;;;;;10454956;28;20230;-82
2023/12/24 06:49:47;;;;;;;3.33;2.63;;;7.10;99.90;;;;;;10455070;28;20282;-82
2023/12/24 06:54:50;;;;;;;5.73;2.50;;;6.80;99.90;;;;;;10454505;28;20234;-82
2023/12/24 06:59:53;;;;;;;2.90;2.37;;;6.60;99.90;;;;;;10454163;28;20262;-82
2023/12/24 07:04:56;;;;;;;3.27;2.57;;;6.30;99.90;;;;;;10452481;28;20223;-82
2023/12/24 07:09:58;;;;;;;2.80;2.50;;;6.10;99.90;;;;;;10413065;28;20227;-82
2023/12/24 07:15:05;;;;;;;4.57;2.50;;;5.90;99.90;;;;;;10415799;28;20239;-82
2023/12/24 07:20:08;;;;;;;3.20;2.63;;;5.20;99.90;;;;;;10412154;28;20259;-82
2023/12/24 07:25:10;;;;;;;2.87;2.13;;;5.00;99.90;;;;;;10423778;28;20303;-82
2023/12/24 07:30:13;;;;;;;3.03;2.43;;;4.60;99.90;;;;;;10453528;28;20268;-82
2023/12/24 07:35:16;;;;;;;4.03;3.10;;;4.30;99.90;;;;;;10444386;28;20584;-82
2023/12/24 07:40:19;;;;;;;5.60;4.33;;;4.00;99.90;;;;;;10415373;28;20254;-82
2023/12/24 07:45:24;;;;;;;7.63;6.10;;;3.90;99.90;;;;;;10455185;28;20235;-82
2023/12/24 07:50:26;;;;;;;6.07;4.57;;;3.80;99.90;;;;;;10435691;28;20259;-82
2023/12/24 07:55:29;;;;;;;6.70;5.67;;;3.70;99.90;;;;;;10415216;28;20262;-81
2023/12/24 08:00:32;;;;;;;6.47;4.70;;;3.80;99.90;;;;;;10453839;28;20247;-82
2023/12/24 08:05:35;;;;;;;6.47;4.87;;;3.80;99.90;;;;;;10493874;28;20233;-82
2023/12/24 08:10:37;;;;;;;5.50;4.40;;;3.80;99.90;;;;;;10493454;28;20287;-82
2023/12/24 08:15:40;;;;;;;4.83;4.40;;;3.70;99.90;;;;;;10487310;28;20355;-83
2023/12/24 08:20:42;;;;;;;5.50;4.30;;;3.80;99.90;;;;;;10451432;28;20304;-82
2023/12/24 08:25:45;;;;;;;6.67;5.27;;;4.20;99.90;;;;;;10451694;28;20320;-81
2023/12/24 08:30:48;;;;;;;7.65;5.15;;;4.40;99.90;;;;;;9751407;28;10000758;-82
2023/12/24 08:35:50;;;;;;;8.73;6.33;;;4.30;99.90;;;;;;10470375;28;20218;-81
2023/12/24 08:40:53;;;;;;;13.10;6.93;;;4.60;99.90;;;;;;10440438;28;20299;-81
2023/12/24 08:45:59;;;;;;;14.90;8.13;;;4.70;99.90;;;;;;10466493;28;20284;-81
2023/12/24 08:51:01;;;;;;;15.17;8.80;;;4.60;99.90;;;;;;10445973;28;20238;-81
2023/12/24 08:56:04;;;;;;;8.03;5.23;;;4.60;99.90;;;;;;10406317;28;20281;-81
2023/12/24 09:01:07;;;;;;;4.60;3.67;;;4.70;99.90;;;;;;10454190;28;20257;-81
2023/12/24 09:06:09;;;;;;;6.30;4.17;;;4.60;99.90;;;;;;10487517;28;20229;-81
2023/12/24 09:11:12;;;;;;;5.37;3.13;;;4.60;99.90;;;;;;10488608;28;20260;-81
2023/12/24 09:16:14;;;;;;;3.60;2.37;;;4.40;99.90;;;;;;10440893;28;20239;-81
2023/12/24 09:21:16;;;;;;;2.47;2.00;;;4.30;99.90;;;;;;10435725;28;20280;-81
2023/12/24 09:26:19;;;;;;;2.23;2.03;;;4.50;99.90;;;;;;10446176;28;20288;-81
2023/12/24 09:31:22;;;;;;;2.77;2.47;;;3.80;99.90;;;;;;10444162;28;20905;-82
2023/12/24 09:36:25;;;;;;;5.87;3.47;;;3.50;99.90;;;;;;10444192;28;20621;-82
2023/12/24 09:41:27;;;;;;;6.37;4.53;;;3.40;99.90;;;;;;10444389;28;20276;-82
2023/12/24 09:46:30;;;;;;;8.10;5.13;;;3.70;99.90;;;;;;10444254;28;20291;-82
2023/12/24 09:51:37;;;;;;;9.37;5.23;;;4.00;99.90;;;;;;10445057;28;20229;-82
2023/12/24 09:56:40;;;;;;;17.23;9.43;;;4.40;99.90;;;;;;10445462;28;20230;-82
2023/12/24 10:01:44;;;;;;;18.43;8.57;;;4.60;99.90;;;;;;10445685;28;20664;-80
2023/12/24 10:06:58;;;;;;;13.50;8.03;;;4.90;99.90;;;;;;10484795;28;20279;-81
2023/12/24 10:12:04;;;;;;;25.03;11.10;;;5.20;99.90;;;;;;10452169;28;20611;-80
2023/12/24 10:17:07;;;;;;;10.73;7.13;;;5.40;99.90;;;;;;10447620;28;20715;-80
2023/12/24 10:22:10;;;;;;;6.90;5.90;;;5.40;99.90;;;;;;10454203;28;20273;-81
2023/12/24 10:27:14;;;;;;;12.33;7.37;;;5.30;99.90;;;;;;10487264;28;20316;-81
2023/12/24 10:32:23;;;;;;;6.67;5.83;;;5.30;99.90;;;;;;10465877;28;20262;-81
2023/12/24 10:37:33;;;;;;;7.60;5.77;;;4.50;99.90;;;;;;10453121;28;20285;-81
2023/12/24 10:42:40;;;;;;;8.67;6.50;;;2.90;99.90;;;;;;10451144;28;20238;-81
2023/12/24 10:47:42;;;;;;;6.83;6.03;;;2.40;99.90;;;;;;10455015;28;20234;-80
2023/12/24 10:52:45;;;;;;;5.33;4.83;;;2.30;99.90;;;;;;10453527;28;20261;-80
2023/12/24 10:58:22;;;;;;;7.10;6.23;;;2.00;99.90;;;;;;10473688;28;20246;-81
2023/12/24 11:03:42;;;;;;;6.73;5.43;;;1.90;99.90;;;;;;10454364;28;20286;-81
2023/12/24 11:08:44;;;;;;;41.73;22.97;;;2.00;99.90;;;;;;10454260;28;20304;-81
2023/12/24 11:13:47;;;;;;;286.00;130.53;;;2.10;99.90;;;;;;10453107;28;20261;-81
2023/12/24 11:18:50;;;;;;;134.37;64.77;;;2.50;99.90;;;;;;10453987;28;20278;-81
2023/12/24 11:24:08;;;;;;;64.43;33.83;;;3.30;99.90;;;;;;10452810;28;20620;-80
2023/12/24 11:29:42;;;;;;;147.70;68.47;;;3.40;99.90;;;;;;10453103;28;20238;-81
2023/12/24 11:34:45;;;;;;;138.37;71.77;;;;;;;;;;10453397;28;20240;-80
2023/12/24 11:40:04;;;;;;;8.80;6.20;;;4.10;99.90;;;;;;10451983;28;20290;-80
2023/12/24 11:45:07;;;;;;;111.47;56.57;;;3.20;99.90;;;;;;10449749;28;20284;-80
2023/12/24 11:50:12;;;;;;;230.50;107.80;;;3.40;99.90;;;;;;10434185;28;20227;-80
2023/12/24 11:55:19;;;;;;;21.43;14.30;;;3.70;99.90;;;;;;10452266;28;20242;-80
2023/12/24 12:00:26;;;;;;;14.23;9.63;;;4.00;99.90;;;;;;10449241;28;20251;-80
2023/12/24 12:05:29;;;;;;;62.50;35.13;;;3.90;99.90;;;;;;10450255;28;20237;-81
2023/12/24 12:10:33;;;;;;;26.23;17.27;;;4.00;99.90;;;;;;10444346;28;20250;-80
2023/12/24 12:15:35;;;;;;;14.93;10.43;;;4.20;99.90;;;;;;10410836;28;20236;-80
2023/12/24 12:20:39;;;;;;;107.87;55.33;;;4.30;99.90;;;;;;10410772;28;20306;-80
2023/12/24 12:25:43;;;;;;;27.13;17.57;;;;;;;;;;10471194;28;20299;-82
2023/12/24 12:30:45;;;;;;;159.23;78.53;;;4.70;99.90;;;;;;10455492;28;20288;-82
2023/12/24 12:35:48;;;;;;;140.67;79.50;;;;;;;;;;10449937;28;20242;-81
2023/12/24 12:40:51;;;;;;;18.53;11.60;;;7.50;99.90;;;;;;10449599;28;20689;-80
2023/12/24 12:45:53;;;;;;;14.97;10.83;;;4.80;99.90;;;;;;10449780;28;20232;-80
2023/12/24 12:50:56;;;;;;;17.80;11.40;;;3.60;99.90;;;;;;10449978;28;20222;-80
2023/12/24 12:56:07;;;;;;;22.73;14.13;;;3.50;99.90;;;;;;10448614;28;20312;-80
2023/12/24 13:01:10;;;;;;;288.83;142.77;;;3.60;99.90;;;;;;10455345;28;20254;-80
2023/12/24 13:06:14;;;;;;;275.60;133.83;;;4.00;99.90;;;;;;10449095;28;20599;-81
2023/12/24 13:11:20;;;;;;;183.93;93.33;;;4.40;99.90;;;;;;10474444;28;20295;-80
2023/12/24 13:16:22;;;;;;;110.77;59.67;;;4.80;99.90;;;;;;10448331;28;20245;-81
2023/12/24 13:21:25;;;;;;;31.33;17.47;;;5.10;99.90;;;;;;10461591;28;20365;-80
2023/12/24 13:26:27;;;;;;;89.73;47.43;;;5.10;99.90;;;;;;10436449;28;20323;-80
2023/12/24 13:31:30;;;;;;;64.93;36.07;;;5.20;99.90;;;;;;10446585;28;20246;-81
2023/12/24 13:36:32;;;;;;;101.53;54.43;;;5.40;99.90;;;;;;10446799;28;20967;-81
2023/12/24 13:41:35;;;;;;;216.17;112.00;;;5.60;99.90;;;;;;10430971;28;20712;-81
2023/12/24 13:46:38;;;;;;;45.03;18.67;;;6.50;99.90;;;;;;10450745;28;20272;-81
2023/12/24 13:51:40;;;;;;;81.27;38.00;;;7.20;99.90;;;;;;10454402;28;20231;-81
2023/12/24 13:56:43;;;;;;;51.53;22.80;;;8.10;99.90;;;;;;10456114;28;20230;-80
2023/12/24 14:01:45;;;;;;;35.27;20.53;;;8.80;99.90;;;;;;10448469;28;20292;-80
2023/12/24 14:06:48;;;;;;;43.43;17.37;;;9.20;99.90;;;;;;10454689;28;20226;-80
2023/12/24 14:11:50;;;;;;;24.00;15.07;;;8.90;99.90;;;;;;10449997;28;20230;-80
2023/12/24 14:16:53;;;;;;;23.37;15.17;;;6.80;99.90;;;;;;10487549;28;20230;-80
2023/12/24 14:21:55;;;;;;;66.90;31.80;;;6.00;99.90;;;;;;10442283;28;20257;-80
2023/12/24 14:26:58;;;;;;;92.20;47.97;;;7.20;99.90;;;;;;10485792;28;20331;-80
2023/12/24 14:32:00;;;;;;;69.47;38.23;;;8.10;99.90;;;;;;10473648;28;20234;-81
2023/12/24 14:37:03;;;;;;;44.87;25.27;;;8.80;99.90;;;;;;10454352;28;20288;-81
2023/12/24 14:42:06;;;;;;;46.47;24.73;;;9.00;99.90;;;;;;10450538;28;20300;-81
2023/12/24 14:47:08;;;;;;;62.40;35.40;;;8.90;99.90;;;;;;10449645;28;20239;-82
2023/12/24 14:52:12;;;;;;;65.37;32.20;;;9.10;99.90;;;;;;10453022;28;20833;-81
2023/12/24 14:57:16;;;;;;;56.60;32.27;;;;;;;;;;10449545;28;20246;-80
2023/12/24 15:02:19;;;;;;;105.73;57.40;;;10.00;99.90;;;;;;10421509;28;20246;-81
2023/12/24 15:07:23;;;;;;;81.03;42.27;;;10.20;99.90;;;;;;10444825;28;20235;-81
2023/12/24 15:12:26;;;;;;;54.53;33.13;;;10.40;99.90;;;;;;10425702;28;20300;-81
2023/12/24 15:17:30;;;;;;;57.27;32.83;;;10.20;99.90;;;;;;10428957;28;20257;-81
2023/12/24 15:22:33;;;;;;;38.43;22.33;;;10.00;99.90;;;;;;10425535;28;20258;-81
2023/12/24 15:27:35;;;;;;;63.40;35.13;;;9.90;99.90;;;;;;10451713;28;20297;-80
2023/12/24 15:32:38;;;;;;;56.83;31.40;;;10.00;99.90;;;;;;10427800;28;20266;-81
2023/12/24 15:37:41;;;;;;;37.70;23.67;;;10.40;99.90;;;;;;10421662;28;20227;-81
2023/12/24 15:42:43;;;;;;;45.93;23.90;;;10.50;99.90;;;;;;10424141;28;20312;-81
2023/12/24 15:47:48;;;;;;;55.57;29.60;;;10.90;99.90;;;;;;10453222;28;20234;-81
2023/12/24 15:52:51;;;;;;;40.47;23.63;;;11.60;99.90;;;;;;10442153;28;20265;-81
2023/12/24 15:57:54;;;;;;;50.07;24.17;;;11.80;99.90;;;;;;10422516;28;20230;-81
2023/12/24 16:02:57;;;;;;;48.20;28.47;;;12.40;99.90;;;;;;10463807;28;20291;-81
2023/12/24 16:07:59;;;;;;;24.43;13.87;;;12.70;99.90;;;;;;10466685;28;20227;-81
2023/12/24 16:13:02;;;;;;;42.27;24.00;;;12.80;99.90;;;;;;10411177;28;20231;-81
2023/12/24 16:18:05;;;;;;;49.90;25.50;;;12.90;99.90;;;;;;10410689;28;20231;-81
2023/12/24 16:23:09;;;;;;;28.97;16.00;;;12.80;99.90;;;;;;10451234;28;20222;-81
2023/12/24 16:28:12;;;;;;;44.87;24.17;;;12.90;99.90;;;;;;10440980;28;20309;-81
2023/12/24 16:33:15;;;;;;;41.50;27.17;;;13.10;99.90;;;;;;10451281;28;20265;-81
2023/12/24 16:38:18;;;;;;;39.63;21.00;;;12.80;99.90;;;;;;10448241;28;20772;-81
2023/12/24 16:43:20;;;;;;;27.93;17.57;;;13.10;99.90;;;;;;10448100;28;20295;-81
2023/12/24 16:48:24;;;;;;;34.30;19.97;;;13.30;99.90;;;;;;10462938;28;20287;-81
2023/12/24 16:53:26;;;;;;;28.67;18.20;;;14.30;99.90;;;;;;10434866;28;20228;-81
2023/12/24 16:58:29;;;;;;;39.23;20.90;;;13.80;99.90;;;;;;10466457;28;20246;-81
2023/12/24 17:03:31;;;;;;;28.33;13.80;;;13.80;99.90;;;;;;10465233;28;20234;-81
2023/12/24 17:08:36;;;;;;;21.57;13.20;;;14.00;99.90;;;;;;10435042;28;20235;-81
2023/12/24 17:13:41;;;;;;;32.67;16.87;;;14.10;99.90;;;;;;10427951;28;20231;-81
2023/12/24 17:18:45;;;;;;;31.80;18.43;;;14.30;99.90;;;;;;10464357;28;20294;-81
2023/12/24 17:23:48;;;;;;;153.77;71.30;;;14.40;99.90;;;;;;10472441;28;20223;-81
2023/12/24 17:28:52;;;;;;;185.97;88.27;;;14.30;99.90;;;;;;10447315;28;20246;-81
2023/12/24 17:33:55;;;;;;;169.00;80.90;;;14.70;99.90;;;;;;10444478;28;20267;-81
2023/12/24 17:39:01;;;;;;;160.17;86.77;;;14.70;99.90;;;;;;10480687;28;20253;-81
2023/12/24 17:44:03;;;;;;;158.83;80.87;;;14.60;99.90;;;;;;10434949;28;20300;-81
2023/12/24 17:49:07;;;;;;;131.27;68.50;;;14.50;99.90;;;;;;10429132;28;20333;-81
2023/12/24 17:54:10;;;;;;;149.40;69.13;;;14.80;99.90;;;;;;10474949;28;20234;-80
2023/12/24 17:59:13;;;;;;;155.93;75.60;;;14.90;99.90;;;;;;10475645;28;20311;-81
2023/12/24 18:04:16;;;;;;;133.87;73.43;;;14.70;99.90;;;;;;10453667;28;20619;-81
2023/12/24 18:09:19;;;;;;;133.77;72.43;;;14.50;99.90;;;;;;10445922;28;20295;-80
2023/12/24 18:14:21;;;;;;;118.03;62.50;;;14.40;99.90;;;;;;10448327;28;20235;-81
2023/12/24 18:19:24;;;;;;;93.57;50.50;;;14.60;99.90;;;;;;10433934;28;20716;-81
2023/12/24 18:24:27;;;;;;;146.17;64.30;;;14.60;99.90;;;;;;10439914;28;20297;-80
2023/12/24 18:29:29;;;;;;;94.47;49.57;;;14.50;99.90;;;;;;10410330;28;20227;-81
2023/12/24 18:34:31;;;;;;;92.63;47.37;;;14.70;99.90;;;;;;10436712;28;20238;-81
2023/12/24 18:39:34;;;;;;;90.63;50.73;;;14.80;99.90;;;;;;10455737;28;20265;-81
2023/12/24 18:44:39;;;;;;;125.43;65.67;;;14.80;99.90;;;;;;10453917;28;20729;-81
2023/12/24 18:49:44;;;;;;;140.23;71.30;;;15.00;99.90;;;;;;10414240;28;20757;-81
2023/12/24 18:54:47;;;;;;;76.00;38.90;;;14.90;99.90;;;;;;10414036;28;20228;-80
2023/12/24 18:59:49;;;;;;;67.63;33.70;;;14.90;99.90;;;;;;10445879;28;20304;-80
2023/12/24 19:04:53;;;;;;;103.03;55.80;;;15.00;99.90;;;;;;10453949;28;20292;-80
2023/12/24 19:09:56;;;;;;;112.53;54.80;;;15.00;99.90;;;;;;10447261;28;20242;-80
2023/12/24 19:14:58;;;;;;;86.63;48.90;;;14.90;99.90;;;;;;10420112;28;20258;-81
2023/12/24 19:20:01;;;;;;;83.27;42.90;;;15.00;99.90;;;;;;10453216;28;20285;-80
2023/12/24 19:25:04;;;;;;;80.50;45.43;;;14.80;99.90;;;;;;10434552;28;20259;-80
2023/12/24 19:30:07;;;;;;;66.53;35.50;;;14.90;99.90;;;;;;10417425;28;20260;-79
2023/12/24 19:35:09;;;;;;;65.40;31.93;;;15.10;99.90;;;;;;10445807;28;20239;-80
2023/12/24 19:40:12;;;;;;;72.37;36.77;;;15.10;99.90;;;;;;10416980;28;20262;-79
2023/12/24 19:45:15;;;;;;;75.60;43.07;;;15.10;99.90;;;;;;10452666;28;20268;-79
2023/12/24 19:50:17;;;;;;;72.60;33.23;;;15.00;99.90;;;;;;10429313;28;20848;-79
2023/12/24 19:55:19;;;;;;;2.17;1.63;;;15.10;99.90;;;;;;10411044;28;20680;-79
2023/12/24 20:00:22;;;;;;;1.57;1.10;;;15.00;99.90;;;;;;10410674;28;20282;-80
2023/12/24 20:05:24;;;;;;;4.20;1.40;;;14.80;99.90;;;;;;10410933;28;20235;-80
2023/12/24 20:10:27;;;;;;;4.00;1.73;;;14.60;99.90;;;;;;10439312;28;20230;-80
2023/12/24 20:15:29;;;;;;;1.00;0.90;;;14.60;99.90;;;;;;10457191;28;20234;-80
2023/12/24 20:20:32;;;;;;;2.53;1.40;;;14.70;99.90;;;;;;10437639;28;20273;-79
2023/12/24 20:25:34;;;;;;;2.10;1.57;;;14.80;99.90;;;;;;10449875;28;20887;-79
2023/12/24 20:30:37;;;;;;;1.47;1.07;;;14.80;99.90;;;;;;10467691;28;20238;-80
2023/12/24 20:35:40;;;;;;;22.63;11.70;;;15.10;99.90;;;;;;10444380;28;20238;-80
2023/12/24 20:40:43;;;;;;;17.27;9.37;;;15.00;99.90;;;;;;10421429;28;20333;-79
2023/12/24 20:45:45;;;;;;;9.27;5.10;;;14.80;99.90;;;;;;10426877;28;20671;-80
2023/12/24 20:50:48;;;;;;;11.90;4.67;;;15.20;99.90;;;;;;10441016;28;20238;-81
2023/12/24 20:55:50;;;;;;;13.17;6.33;;;14.90;99.90;;;;;;9750016;28;10000691;-80
2023/12/24 21:00:54;;;;;;;4.90;3.40;;;15.00;99.90;;;;;;10436793;28;20502;-80
2023/12/24 21:05:56;;;;;;;8.47;4.23;;;15.00;99.90;;;;;;10405442;28;20234;-80
2023/12/24 21:11:00;;;;;;;3.83;3.07;;;15.00;99.90;;;;;;10406024;28;20758;-80
2023/12/24 21:16:02;;;;;;;7.50;4.20;;;15.00;99.90;;;;;;10437027;28;20270;-80
2023/12/24 21:21:05;;;;;;;6.90;3.83;;;14.70;99.90;;;;;;10405902;28;20304;-80
2023/12/24 21:26:08;;;;;;;7.90;4.07;;;14.70;99.90;;;;;;10451094;28;20258;-80
2023/12/24 21:31:12;;;;;;;6.67;3.80;;;14.60;99.90;;;;;;10416734;28;20272;-80
2023/12/24 21:36:15;;;;;;;5.60;3.20;;;14.70;99.90;;;;;;10433747;28;20239;-80
2023/12/24 21:41:17;;;;;;;10.20;3.77;;;14.60;99.90;;;;;;10416432;28;20255;-80
2023/12/24 21:46:20;;;;;;;5.10;4.00;;;14.80;99.90;;;;;;10093714;28;10000207;-80
2023/12/24 21:51:22;;;;;;;6.50;3.63;;;15.10;99.90;;;;;;10435908;28;20238;-80
2023/12/24 21:56:25;;;;;;;6.70;3.77;;;15.30;99.90;;;;;;10455028;28;20226;-80
2023/12/24 22:01:27;;;;;;;9.40;3.13;;;15.10;99.90;;;;;;10472762;28;20713;-80
2023/12/24 22:06:34;;;;;;;7.07;3.77;;;15.00;99.90;;;;;;10487865;28;20245;-80
2023/12/24 22:11:36;;;;;;;3.50;2.40;;;15.10;99.90;;;;;;10494854;28;20308;-80
2023/12/24 22:16:39;;;;;;;3.43;1.77;;;15.10;99.90;;;;;;10493770;28;20367;-80
2023/12/24 22:21:47;;;;;;;4.90;2.43;;;14.90;99.90;;;;;;10455169;28;20251;-80
2023/12/24 22:26:50;;;;;;;3.23;2.17;;;15.10;99.90;;;;;;10452001;28;20258;-80
2023/12/24 22:31:53;;;;;;;2.97;1.60;;;15.00;99.90;;;;;;10452377;28;20239;-80
2023/12/24 22:36:55;;;;;;;3.70;2.83;;;14.80;99.90;;;;;;10412875;28;20638;-80
2023/12/24 22:41:58;;;;;;;3.73;2.37;;;15.00;99.90;;;;;;10463388;28;20380;-81
2023/12/24 22:47:00;;;;;;;3.60;2.83;;;15.00;99.90;;;;;;10452417;28;20230;-81
2023/12/24 22:52:03;;;;;;;2.27;1.90;;;15.10;99.90;;;;;;10433175;28;20227;-81
2023/12/24 22:57:06;;;;;;;5.00;3.17;;;14.70;99.90;;;;;;10443859;28;20909;-81
2023/12/24 23:02:08;;;;;;;3.07;2.23;;;14.90;99.90;;;;;;10449568;28;20263;-80
2023/12/24 23:07:12;;;;;;;3.77;2.93;;;14.80;99.90;;;;;;10417286;28;20231;-81
2023/12/24 23:12:15;;;;;;;5.53;3.03;;;14.60;99.90;;;;;;10461455;28;20241;-81
2023/12/24 23:17:18;;;;;;;2.53;1.53;;;14.40;99.90;;;;;;10449963;28;20297;-81
2023/12/24 23:22:20;;;;;;;1.67;1.47;;;14.40;99.90;;;;;;10448781;28;20246;-81
2023/12/24 23:27:23;;;;;;;3.33;2.27;;;14.80;99.90;;;;;;10452941;28;20833;-80
2023/12/24 23:32:25;;;;;;;2.80;2.17;;;14.80;99.90;;;;;;10464937;28;20241;-80
2023/12/24 23:37:28;;;;;;;3.83;2.53;;;14.60;99.90;;;;;;10491504;28;20624;-81
2023/12/24 23:42:30;;;;;;;3.83;1.97;;;14.90;99.90;;;;;;10489727;28;20246;-80
2023/12/24 23:47:33;;;;;;;2.63;1.20;;;14.70;99.90;;;;;;10447059;28;20641;-81
2023/12/24 23:52:36;;;;;;;4.93;3.03;;;14.40;99.90;;;;;;10447421;28;20234;-80
2023/12/24 23:57:38;;;;;;;1.10;0.80;;;13.40;99.90;;;;;;10450268;28;20288;-81
